Time;durP1;ratioP1;P1;durP2;ratioP2;P2;SDS_P1;SDS_P2;PMS_P1;PMS_P2;Temp;Humidity;BMP_temperature;BMP_pressure;BME280_temperature;BME280_humidity;BME280_pressure;Samples;Min_cycle;Max_cycle;Signal;HPM_P1;HPM_P2
2023/06/13 00:00:10;;;;;;;3.97;3.57;;;;;;;;;;5061112;28;20419;-73
2023/06/13 00:02:40;;;;;;;4.53;4.13;;;;;;;;;;5061236;28;21018;-73
2023/06/13 00:05:07;;;;;;;9.30;4.80;;;;;;;;;;5061236;28;20415;-74
2023/06/13 00:07:37;;;;;;;4.57;4.07;;;;;;;;;;5061100;28;20463;-74
2023/06/13 00:10:03;;;;;;;6.13;4.43;;;;;;;;;;5061244;28;20400;-73
2023/06/13 00:12:29;;;;;;;5.80;4.17;;;;;;;;;;5061288;28;20800;-73
2023/06/13 00:14:55;;;;;;;5.23;4.27;;;;;;;;;;5061457;28;20408;-73
2023/06/13 00:17:25;;;;;;;9.50;3.80;;;;;;;;;;5060801;28;20841;-74
2023/06/13 00:19:51;;;;;;;5.00;3.90;;;;;;;;;;5061461;28;20412;-73
2023/06/13 00:22:17;;;;;;;4.90;4.00;;;;;;;;;;5061743;28;20415;-73
2023/06/13 00:24:43;;;;;;;5.20;3.90;;;;;;;;;;5061638;28;20767;-73
2023/06/13 00:27:10;;;;;;;6.33;4.50;;;;;;;;;;5061283;28;20444;-74
2023/06/13 00:29:36;;;;;;;6.33;4.17;;;;;;;;;;5060905;28;20408;-73
2023/06/13 00:32:02;;;;;;;4.33;3.93;;;;;;;;;;5061142;28;20746;-73
2023/06/13 00:34:28;;;;;;;6.27;4.60;;;;;;;;;;5061113;28;20430;-73
2023/06/13 00:36:55;;;;;;;4.93;4.43;;;;;;;;;;5060958;28;20458;-73
2023/06/13 00:39:21;;;;;;;5.50;3.97;;;;;;;;;;5060745;28;20459;-74
2023/06/13 00:41:47;;;;;;;4.97;4.43;;;;;;;;;;5061035;28;20400;-73
2023/06/13 00:44:13;;;;;;;5.63;4.30;;;;;;;;;;5061239;28;20367;-73
2023/06/13 00:46:41;;;;;;;6.13;4.50;;;;;;;;;;5060994;28;20427;-73
2023/06/13 00:49:08;;;;;;;4.60;3.90;;;;;;;;;;5061328;28;20415;-73
2023/06/13 00:51:35;;;;;;;7.27;4.33;;;;;;;;;;5058523;28;20405;-73
2023/06/13 00:54:02;;;;;;;5.17;4.57;;;;;;;;;;5058072;28;20496;-73
2023/06/13 00:56:28;;;;;;;5.07;4.13;;;;;;;;;;5057762;28;20480;-73
2023/06/13 00:58:55;;;;;;;4.60;4.10;;;;;;;;;;5057775;28;20532;-73
2023/06/13 01:01:22;;;;;;;4.40;4.00;;;;;;;;;;5057671;28;20941;-73
2023/06/13 01:03:50;;;;;;;6.03;3.77;;;;;;;;;;5057793;28;20400;-73
2023/06/13 01:06:16;;;;;;;6.70;4.07;;;;;;;;;;5057973;28;20914;-73
2023/06/13 01:08:44;;;;;;;6.17;5.00;;;;;;;;;;5057626;28;20404;-73
2023/06/13 01:11:19;;;;;;;5.30;4.70;;;;;;;;;;5058185;28;20400;-73
2023/06/13 01:14:01;;;;;;;4.80;4.10;;;;;;;;;;5058273;28;20428;-73
2023/06/13 01:16:28;;;;;;;5.33;4.33;;;;;;;;;;5058219;28;20781;-73
2023/06/13 01:18:55;;;;;;;6.80;4.10;;;;;;;;;;5057788;28;20464;-73
2023/06/13 01:21:24;;;;;;;4.93;4.43;;;;;;;;;;5058205;28;20474;-73
2023/06/13 01:24:03;;;;;;;4.77;4.37;;;;;;;;;;5057351;28;20887;-73
2023/06/13 01:26:47;;;;;;;4.47;4.03;;;;;;;;;;5057107;28;20455;-73
2023/06/13 01:29:15;;;;;;;5.63;3.93;;;;;;;;;;5057861;28;20408;-73
2023/06/13 01:31:42;;;;;;;6.37;4.50;;;;;;;;;;5057608;28;20408;-73
2023/06/13 01:34:08;;;;;;;4.53;4.13;;;;;;;;;;5057496;28;20423;-73
2023/06/13 01:36:35;;;;;;;4.70;4.00;;;;;;;;;;5057304;28;21053;-73
2023/06/13 01:39:02;;;;;;;5.20;4.70;;;;;;;;;;5057333;28;20471;-73
2023/06/13 01:41:28;;;;;;;6.33;4.60;;;;;;;;;;5057266;28;20408;-74
2023/06/13 01:43:54;;;;;;;9.07;5.00;;;;;;;;;;5057412;28;20796;-74
2023/06/13 01:46:27;;;;;;;7.40;4.57;;;;;;;;;;5058111;28;20419;-73
2023/06/13 01:49:12;;;;;;;6.73;4.83;;;;;;;;;;5057465;28;20392;-73
2023/06/13 01:51:58;;;;;;;5.07;4.37;;;;;;;;;;5057372;28;20445;-73
2023/06/13 01:54:25;;;;;;;4.80;4.30;;;;;;;;;;5057407;28;20400;-74
2023/06/13 01:56:55;;;;;;;7.30;4.90;;;;;;;;;;5057344;28;20759;-73
2023/06/13 01:59:25;;;;;;;4.93;4.47;;;;;;;;;;5056906;28;20460;-73
2023/06/13 02:01:51;;;;;;;8.40;4.00;;;;;;;;;;5057206;28;20407;-73
2023/06/13 02:04:17;;;;;;;6.43;4.80;;;;;;;;;;5056203;28;20708;-73
2023/06/13 02:06:43;;;;;;;8.10;5.17;;;;;;;;;;5056902;28;20399;-73
2023/06/13 02:09:10;;;;;;;7.50;4.80;;;;;;;;;;5057003;28;20392;-73
2023/06/13 02:11:36;;;;;;;4.73;3.83;;;;;;;;;;5056321;28;20419;-73
2023/06/13 02:14:02;;;;;;;5.30;4.80;;;;;;;;;;5056686;28;20801;-73
2023/06/13 02:16:30;;;;;;;5.77;4.80;;;;;;;;;;5056553;28;20546;-74
2023/06/13 02:18:59;;;;;;;4.70;4.27;;;;;;;;;;5057111;28;20471;-73
2023/06/13 02:21:25;;;;;;;5.97;4.30;;;;;;;;;;5056733;28;20963;-75
2023/06/13 02:23:51;;;;;;;8.20;5.00;;;;;;;;;;5056938;28;20397;-73
2023/06/13 02:26:19;;;;;;;6.20;4.70;;;;;;;;;;5057058;28;20400;-73
2023/06/13 02:28:45;;;;;;;8.53;4.60;;;;;;;;;;5056733;28;20383;-73
2023/06/13 02:31:11;;;;;;;5.67;4.00;;;;;;;;;;5056672;28;20383;-73
2023/06/13 02:33:38;;;;;;;5.70;5.03;;;;;;;;;;5056898;28;20483;-73
2023/06/13 02:36:04;;;;;;;4.83;4.00;;;;;;;;;;5056710;28;20469;-73
2023/06/13 02:38:30;;;;;;;6.37;4.60;;;;;;;;;;5056391;28;20459;-74
2023/06/13 02:40:57;;;;;;;5.03;4.53;;;;;;;;;;5057220;28;20381;-73
2023/06/13 02:43:23;;;;;;;4.83;4.33;;;;;;;;;;5056519;28;20502;-73
2023/06/13 02:45:50;;;;;;;6.87;4.50;;;;;;;;;;5056077;28;20404;-74
2023/06/13 02:48:16;;;;;;;5.03;3.90;;;;;;;;;;5056037;28;20910;-73
2023/06/13 02:50:42;;;;;;;7.03;4.80;;;;;;;;;;5056426;28;20404;-73
2023/06/13 02:53:08;;;;;;;4.67;4.00;;;;;;;;;;5056714;28;20435;-73
2023/06/13 02:55:34;;;;;;;5.00;4.50;;;;;;;;;;5056171;28;20878;-73
2023/06/13 02:58:01;;;;;;;6.93;4.17;;;;;;;;;;5056169;28;20463;-73
2023/06/13 03:00:27;;;;;;;5.73;4.47;;;;;;;;;;5055946;28;20412;-73
2023/06/13 03:03:02;;;;;;;5.13;4.40;;;;;;;;;;5056516;28;20402;-73
2023/06/13 03:05:28;;;;;;;6.30;4.70;;;;;;;;;;5056196;28;20423;-75
2023/06/13 03:07:58;;;;;;;5.97;4.03;;;;;;;;;;5056363;28;20408;-73
2023/06/13 03:10:25;;;;;;;6.93;4.17;;;;;;;;;;5056034;28;20479;-73
2023/06/13 03:12:51;;;;;;;6.00;4.07;;;;;;;;;;5055917;28;20857;-73
2023/06/13 03:15:17;;;;;;;8.40;5.00;;;;;;;;;;5055799;28;20375;-73
2023/06/13 03:17:44;;;;;;;5.80;4.20;;;;;;;;;;5055732;28;20431;-73
2023/06/13 03:20:11;;;;;;;5.40;4.80;;;;;;;;;;5056357;28;20428;-73
2023/06/13 03:22:37;;;;;;;7.50;4.90;;;;;;;;;;5056148;28;20437;-73
2023/06/13 03:25:04;;;;;;;5.20;4.20;;;;;;;;;;5056289;28;20370;-73
2023/06/13 03:27:31;;;;;;;5.60;4.40;;;;;;;;;;5056309;28;20394;-74
2023/06/13 03:29:57;;;;;;;7.83;4.07;;;;;;;;;;5056219;28;20386;-74
2023/06/13 03:32:23;;;;;;;11.63;4.80;;;;;;;;;;5056168;28;20404;-73
2023/06/13 03:34:52;;;;;;;5.70;4.30;;;;;;;;;;5056756;28;20632;-73
2023/06/13 03:37:19;;;;;;;7.10;4.80;;;;;;;;;;5056182;28;20422;-73
2023/06/13 03:39:45;;;;;;;9.03;5.43;;;;;;;;;;5056435;28;20412;-72
2023/06/13 03:42:11;;;;;;;5.87;5.10;;;;;;;;;;5056440;28;20760;-72
2023/06/13 03:44:37;;;;;;;11.13;5.67;;;;;;;;;;5056174;28;20473;-73
2023/06/13 03:47:04;;;;;;;9.13;4.80;;;;;;;;;;5056478;28;20484;-73
2023/06/13 03:49:30;;;;;;;7.23;4.70;;;;;;;;;;5056520;28;20400;-72
2023/06/13 03:51:56;;;;;;;7.20;4.23;;;;;;;;;;5056512;28;20458;-73
2023/06/13 03:54:22;;;;;;;6.87;4.30;;;;;;;;;;5056035;28;20393;-72
2023/06/13 03:56:48;;;;;;;7.60;5.00;;;;;;;;;;5055670;28;20363;-72
2023/06/13 03:59:14;;;;;;;8.70;5.53;;;;;;;;;;5056220;28;20480;-72
2023/06/13 04:01:43;;;;;;;8.63;5.03;;;;;;;;;;5056269;28;20378;-72
2023/06/13 04:04:09;;;;;;;5.73;5.23;;;;;;;;;;5055743;28;20400;-73
2023/06/13 04:06:36;;;;;;;6.20;5.00;;;;;;;;;;5055863;28;20423;-73
2023/06/13 04:09:05;;;;;;;6.73;4.80;;;;;;;;;;5055815;28;20412;-72
2023/06/13 04:11:31;;;;;;;9.23;4.50;;;;;;;;;;5056266;28;20382;-72
2023/06/13 04:13:57;;;;;;;10.73;4.73;;;;;;;;;;5056031;28;20776;-73
2023/06/13 04:16:23;;;;;;;9.93;4.43;;;;;;;;;;5055857;28;20427;-72
2023/06/13 04:18:49;;;;;;;6.03;4.27;;;;;;;;;;5055585;28;20466;-72
2023/06/13 04:21:15;;;;;;;6.00;5.00;;;;;;;;;;5055902;28;20419;-73
2023/06/13 04:23:41;;;;;;;5.73;4.17;;;;;;;;;;5054497;28;20888;-73
2023/06/13 04:26:07;;;;;;;6.90;3.90;;;;;;;;;;5056663;28;20477;-72
2023/06/13 04:28:33;;;;;;;4.80;4.33;;;;;;;;;;5060002;28;20411;-73
2023/06/13 04:31:03;;;;;;;6.87;4.30;;;;;;;;;;5060413;28;20407;-73
2023/06/13 04:33:29;;;;;;;5.30;4.80;;;;;;;;;;5059589;28;20415;-72
2023/06/13 04:36:03;;;;;;;5.03;4.53;;;;;;;;;;5059095;28;20521;-73
2023/06/13 04:38:29;;;;;;;6.23;4.47;;;;;;;;;;5059592;28;20451;-73
2023/06/13 04:40:56;;;;;;;7.30;4.27;;;;;;;;;;5059262;28;20856;-73
2023/06/13 04:43:23;;;;;;;5.63;4.63;;;;;;;;;;5059439;28;20400;-72
2023/06/13 04:45:49;;;;;;;5.83;4.73;;;;;;;;;;5057646;28;20408;-72
2023/06/13 04:48:15;;;;;;;6.90;4.60;;;;;;;;;;5059107;28;20391;-73
2023/06/13 04:50:41;;;;;;;6.50;5.00;;;;;;;;;;5059269;28;20939;-73
2023/06/13 04:53:15;;;;;;;5.70;4.73;;;;;;;;;;5059423;28;20392;-72
2023/06/13 04:55:42;;;;;;;7.73;5.10;;;;;;;;;;5058767;28;20478;-72
2023/06/13 04:58:08;;;;;;;5.50;4.73;;;;;;;;;;5058967;28;20459;-72
2023/06/13 05:00:34;;;;;;;6.37;4.60;;;;;;;;;;5058923;28;20408;-73
2023/06/13 05:03:01;;;;;;;6.43;4.50;;;;;;;;;;5059015;28;20420;-73
2023/06/13 05:05:28;;;;;;;6.03;4.90;;;;;;;;;;5058957;28;20481;-73
2023/06/13 05:07:55;;;;;;;6.53;4.80;;;;;;;;;;5058316;28;20412;-73
2023/06/13 05:10:25;;;;;;;6.87;4.23;;;;;;;;;;5058647;28;20439;-73
2023/06/13 05:12:51;;;;;;;5.73;5.13;;;;;;;;;;5058208;28;20769;-73
2023/06/13 05:15:18;;;;;;;4.70;4.10;;;;;;;;;;5058094;28;20400;-73
2023/06/13 05:17:54;;;;;;;7.37;4.40;;;;;;;;;;5058721;28;20426;-73
2023/06/13 05:20:26;;;;;;;9.00;5.77;;;;;;;;;;5058682;28;20416;-73
2023/06/13 05:22:53;;;;;;;6.03;4.53;;;;;;;;;;5058444;28;20419;-73
2023/06/13 05:25:20;;;;;;;7.20;4.40;;;;;;;;;;5057752;28;20371;-73
2023/06/13 05:27:46;;;;;;;7.03;5.20;;;;;;;;;;5055978;28;20415;-73
2023/06/13 05:30:12;;;;;;;4.97;4.30;;;;;;;;;;5057342;28;20408;-72
2023/06/13 05:32:38;;;;;;;6.97;4.40;;;;;;;;;;5058163;28;20489;-74
2023/06/13 05:35:07;;;;;;;5.93;4.90;;;;;;;;;;5058508;28;20400;-73
2023/06/13 05:37:36;;;;;;;7.47;4.70;;;;;;;;;;5057776;28;20498;-73
2023/06/13 05:40:02;;;;;;;9.33;5.27;;;;;;;;;;5058762;28;20466;-73
2023/06/13 05:42:28;;;;;;;7.83;4.60;;;;;;;;;;5057822;28;20379;-73
2023/06/13 05:44:54;;;;;;;11.07;5.47;;;;;;;;;;5058703;28;20401;-73
2023/06/13 05:47:20;;;;;;;7.47;4.90;;;;;;;;;;5058286;28;20896;-73
2023/06/13 05:49:46;;;;;;;9.53;5.37;;;;;;;;;;5056525;28;20400;-73
2023/06/13 05:52:12;;;;;;;7.37;4.40;;;;;;;;;;5058130;28;20465;-73
2023/06/13 05:54:38;;;;;;;7.00;5.20;;;;;;;;;;5058009;28;20780;-74
2023/06/13 05:57:04;;;;;;;6.47;4.83;;;;;;;;;;5057845;28;20465;-73
2023/06/13 05:59:30;;;;;;;9.73;5.73;;;;;;;;;;5058328;28;20455;-73
2023/06/13 06:01:56;;;;;;;7.03;5.27;;;;;;;;;;5057974;28;20470;-73
2023/06/13 06:04:22;;;;;;;10.87;5.40;;;;;;;;;;5058048;28;20876;-73
2023/06/13 06:06:49;;;;;;;7.80;4.97;;;;;;;;;;5057762;28;20423;-73
2023/06/13 06:09:15;;;;;;;7.33;4.93;;;;;;;;;;5057114;28;20812;-73
2023/06/13 06:11:41;;;;;;;7.37;5.07;;;;;;;;;;5057781;28;20919;-74
2023/06/13 06:14:07;;;;;;;8.20;4.60;;;;;;;;;;5057854;28;20480;-73
2023/06/13 06:16:33;;;;;;;6.43;4.50;;;;;;;;;;5056022;28;20405;-73
2023/06/13 06:18:59;;;;;;;10.23;5.67;;;;;;;;;;5057284;28;20799;-73
2023/06/13 06:21:25;;;;;;;6.37;4.30;;;;;;;;;;5057095;28;20431;-73
2023/06/13 06:23:51;;;;;;;9.03;5.00;;;;;;;;;;5057070;28;20875;-74
2023/06/13 06:26:17;;;;;;;6.27;4.87;;;;;;;;;;5057185;28;20408;-73
2023/06/13 06:28:43;;;;;;;6.33;4.53;;;;;;;;;;5056934;28;20400;-73
2023/06/13 06:31:09;;;;;;;6.70;5.40;;;;;;;;;;5057179;28;20392;-73
2023/06/13 06:33:35;;;;;;;5.20;4.70;;;;;;;;;;5057411;28;20419;-73
2023/06/13 06:36:02;;;;;;;4.93;4.40;;;;;;;;;;5056820;28;20807;-74
2023/06/13 06:38:28;;;;;;;8.93;5.10;;;;;;;;;;5056710;28;20458;-73
2023/06/13 06:40:54;;;;;;;7.50;4.87;;;;;;;;;;5056917;28;20408;-74
2023/06/13 06:43:20;;;;;;;7.97;4.70;;;;;;;;;;5056700;28;20434;-73
2023/06/13 06:45:46;;;;;;;7.30;5.10;;;;;;;;;;5056628;28;20470;-73
2023/06/13 06:48:12;;;;;;;5.40;4.70;;;;;;;;;;5056633;28;20423;-72
2023/06/13 06:50:38;;;;;;;5.10;4.10;;;;;;;;;;5055166;28;20487;-73
2023/06/13 06:53:04;;;;;;;9.80;5.40;;;;;;;;;;5056255;28;20431;-74
2023/06/13 06:55:30;;;;;;;10.37;5.00;;;;;;;;;;5056722;28;20408;-73
2023/06/13 06:57:56;;;;;;;6.33;5.50;;;;;;;;;;5056475;28;20478;-74
2023/06/13 07:00:23;;;;;;;8.70;5.47;;;;;;;;;;5056504;28;20415;-73
2023/06/13 07:02:49;;;;;;;6.20;4.37;;;;;;;;;;5055454;28;20419;-74
2023/06/13 07:05:15;;;;;;;4.83;4.10;;;;;;;;;;5056213;28;20443;-74
2023/06/13 07:07:45;;;;;;;6.60;5.20;;;;;;;;;;5056681;28;20400;-73
2023/06/13 07:10:11;;;;;;;8.17;5.60;;;;;;;;;;5056821;28;20411;-74
2023/06/13 07:12:40;;;;;;;7.80;4.57;;;;;;;;;;5056617;28;20507;-73
2023/06/13 07:15:07;;;;;;;4.40;3.93;;;;;;;;;;5055465;28;20405;-74
2023/06/13 07:17:33;;;;;;;6.43;4.23;;;;;;;;;;5055803;28;20797;-73
2023/06/13 07:19:59;;;;;;;4.30;3.83;;;;;;;;;;5056222;28;20746;-73
2023/06/13 07:22:25;;;;;;;7.23;4.20;;;;;;;;;;5056015;28;20396;-73
2023/06/13 07:24:51;;;;;;;6.53;3.63;;;;;;;;;;5055848;28;20396;-73
2023/06/13 07:27:17;;;;;;;4.20;3.80;;;;;;;;;;5056718;28;20378;-73
2023/06/13 07:29:44;;;;;;;4.97;4.33;;;;;;;;;;5055749;28;20451;-75
2023/06/13 07:32:10;;;;;;;4.07;3.67;;;;;;;;;;5056369;28;20392;-73
2023/06/13 07:34:36;;;;;;;7.00;4.70;;;;;;;;;;5055790;28;20501;-73
2023/06/13 07:37:03;;;;;;;5.93;4.40;;;;;;;;;;5055322;28;20511;-73
2023/06/13 07:39:29;;;;;;;8.13;4.40;;;;;;;;;;5055665;28;20467;-74
2023/06/13 07:41:55;;;;;;;5.53;4.33;;;;;;;;;;5055795;28;20439;-74
2023/06/13 07:44:22;;;;;;;7.30;4.03;;;;;;;;;;5056138;28;20953;-73
2023/06/13 07:46:48;;;;;;;9.03;4.47;;;;;;;;;;5055772;28;20735;-74
2023/06/13 07:49:14;;;;;;;5.00;4.00;;;;;;;;;;5055633;28;20416;-73
2023/06/13 07:51:41;;;;;;;6.50;4.50;;;;;;;;;;5054199;28;20955;-73
2023/06/13 07:54:07;;;;;;;6.90;4.00;;;;;;;;;;5055358;28;20412;-73
2023/06/13 07:56:33;;;;;;;6.30;4.60;;;;;;;;;;5055984;28;20408;-73
2023/06/13 07:58:59;;;;;;;5.00;4.27;;;;;;;;;;5054965;28;20455;-73
2023/06/13 08:01:25;;;;;;;6.00;4.47;;;;;;;;;;5058519;28;20415;-74
2023/06/13 08:03:51;;;;;;;8.00;4.47;;;;;;;;;;5059346;28;20404;-73
2023/06/13 08:06:17;;;;;;;6.10;4.03;;;;;;;;;;5059477;28;20763;-73
2023/06/13 08:08:43;;;;;;;5.60;4.20;;;;;;;;;;5059625;28;20747;-73
2023/06/13 08:11:09;;;;;;;5.80;3.80;;;;;;;;;;5059309;28;20399;-74
2023/06/13 08:13:35;;;;;;;4.80;4.07;;;;;;;;;;5060194;28;20491;-74
2023/06/13 08:16:01;;;;;;;7.97;4.50;;;;;;;;;;5059590;28;20407;-73
2023/06/13 08:18:27;;;;;;;7.60;4.77;;;;;;;;;;5059624;28;20550;-73
2023/06/13 08:20:53;;;;;;;5.13;4.00;;;;;;;;;;5058502;28;20404;-73
2023/06/13 08:23:19;;;;;;;8.10;4.03;;;;;;;;;;5059542;28;20445;-74
2023/06/13 08:25:45;;;;;;;4.10;3.70;;;;;;;;;;5058698;28;20415;-73
2023/06/13 08:28:13;;;;;;;7.03;3.83;;;;;;;;;;5058853;28;20495;-74
2023/06/13 08:30:39;;;;;;;8.13;4.00;;;;;;;;;;5058524;28;20399;-73
2023/06/13 08:33:10;;;;;;;5.37;4.47;;;;;;;;;;5058261;28;20461;-74
2023/06/13 08:35:36;;;;;;;6.93;3.73;;;;;;;;;;5058195;28;20468;-73
2023/06/13 08:38:02;;;;;;;3.80;3.50;;;;;;;;;;5058264;28;20460;-74
2023/06/13 08:40:28;;;;;;;5.13;4.10;;;;;;;;;;5058326;28;20458;-73
2023/06/13 08:42:54;;;;;;;4.00;3.60;;;;;;;;;;5057743;28;20423;-74
2023/06/13 08:45:21;;;;;;;6.57;4.10;;;;;;;;;;5058293;28;20490;-74
2023/06/13 08:47:48;;;;;;;9.90;4.80;;;;;;;;;;5056465;28;20420;-74
2023/06/13 08:50:18;;;;;;;5.23;4.13;;;;;;;;;;5057961;28;20407;-74
2023/06/13 08:52:46;;;;;;;5.13;3.43;;;;;;;;;;5057828;28;20440;-74
2023/06/13 08:55:13;;;;;;;4.23;3.60;;;;;;;;;;5057636;28;20407;-74
2023/06/13 08:57:40;;;;;;;4.43;3.90;;;;;;;;;;5056626;28;20410;-74
2023/06/13 09:00:09;;;;;;;8.93;4.67;;;;;;;;;;5057002;28;20404;-73
2023/06/13 09:02:36;;;;;;;5.60;4.20;;;;;;;;;;5056691;28;20458;-74
2023/06/13 09:05:03;;;;;;;5.30;4.00;;;;;;;;;;5056440;28;20868;-74
2023/06/13 09:07:30;;;;;;;5.50;3.93;;;;;;;;;;5057155;28;20404;-74
2023/06/13 09:09:57;;;;;;;5.50;4.00;;;;;;;;;;5056386;28;20415;-74
2023/06/13 09:12:23;;;;;;;4.20;3.80;;;;;;;;;;5056066;28;20420;-74
2023/06/13 09:14:49;;;;;;;6.93;4.10;;;;;;;;;;5056446;28;20405;-74
2023/06/13 09:17:15;;;;;;;4.30;3.90;;;;;;;;;;5056196;28;20877;-74
2023/06/13 09:19:41;;;;;;;6.10;4.30;;;;;;;;;;5056176;28;20455;-74
2023/06/13 09:22:07;;;;;;;4.00;3.60;;;;;;;;;;5056324;28;20422;-74
2023/06/13 09:24:33;;;;;;;5.00;3.90;;;;;;;;;;5056298;28;20405;-74
2023/06/13 09:27:01;;;;;;;4.30;3.93;;;;;;;;;;5055725;28;20409;-74
2023/06/13 09:29:36;;;;;;;4.00;3.63;;;;;;;;;;5055886;28;20997;-74
2023/06/13 09:32:03;;;;;;;4.03;3.67;;;;;;;;;;5055669;28;20753;-71
2023/06/13 09:34:29;;;;;;;4.83;3.70;;;;;;;;;;5055874;28;20501;-71
2023/06/13 09:36:59;;;;;;;5.63;3.40;;;;;;;;;;5054958;28;20452;-72
2023/06/13 09:39:25;;;;;;;4.60;3.83;;;;;;;;;;5055410;28;20498;-71
2023/06/13 09:41:56;;;;;;;6.10;3.67;;;;;;;;;;5054560;28;21229;-74
2023/06/13 09:44:23;;;;;;;4.23;3.80;;;;;;;;;;5055440;28;20755;-72
2023/06/13 09:46:52;;;;;;;5.20;3.20;;;;;;;;;;5055233;28;20945;-71
2023/06/13 09:49:18;;;;;;;5.27;3.50;;;;;;;;;;5055144;28;20876;-71
2023/06/13 09:51:47;;;;;;;3.60;3.30;;;;;;;;;;5054859;28;20424;-72
2023/06/13 09:54:16;;;;;;;4.30;3.90;;;;;;;;;;5054765;28;20388;-71
2023/06/13 09:56:43;;;;;;;7.13;3.30;;;;;;;;;;5054889;28;20519;-72
2023/06/13 09:59:17;;;;;;;3.47;3.17;;;;;;;;;;5054777;28;20504;-72
2023/06/13 10:01:43;;;;;;;3.73;3.43;;;;;;;;;;5054728;28;20423;-72
2023/06/13 10:04:10;;;;;;;3.70;3.37;;;;;;;;;;5054505;28;20427;-71
2023/06/13 10:06:36;;;;;;;4.20;3.80;;;;;;;;;;5054965;28;20400;-71
2023/06/13 10:09:02;;;;;;;5.70;4.10;;;;;;;;;;5054353;28;20411;-72
2023/06/13 10:11:34;;;;;;;4.33;3.60;;;;;;;;;;5054805;28;20408;-72
2023/06/13 10:14:03;;;;;;;3.93;3.53;;;;;;;;;;5054407;28;20420;-72
2023/06/13 10:16:30;;;;;;;4.57;3.77;;;;;;;;;;5054507;28;20405;-72
2023/06/13 10:18:58;;;;;;;6.77;3.90;;;;;;;;;;5054215;28;20482;-73
2023/06/13 10:21:24;;;;;;;6.37;3.67;;;;;;;;;;5054380;28;20416;-73
2023/06/13 10:23:51;;;;;;;5.10;4.30;;;;;;;;;;5053250;28;20408;-73
2023/06/13 10:26:37;;;;;;;3.77;3.47;;;;;;;;;;5054167;28;20454;-73
2023/06/13 10:29:03;;;;;;;4.00;3.70;;;;;;;;;;5053893;28;20404;-72
2023/06/13 10:31:48;;;;;;;4.23;3.80;;;;;;;;;;5054375;28;20404;-73
2023/06/13 10:34:15;;;;;;;3.63;3.30;;;;;;;;;;5053696;28;20396;-73
2023/06/13 10:37:00;;;;;;;4.00;3.57;;;;;;;;;;5054028;28;20510;-72
2023/06/13 10:39:30;;;;;;;4.13;3.73;;;;;;;;;;5054048;28;20448;-73
2023/06/13 10:42:08;;;;;;;3.70;3.40;;;;;;;;;;5053276;28;20465;-74
2023/06/13 10:44:47;;;;;;;3.63;3.33;;;;;;;;;;5053751;28;20745;-73
2023/06/13 10:47:16;;;;;;;4.43;3.40;;;;;;;;;;5053667;28;20411;-73
2023/06/13 10:49:43;;;;;;;6.23;4.07;;;;;;;;;;5053880;28;20391;-73
2023/06/13 10:52:10;;;;;;;4.70;3.77;;;;;;;;;;5053513;28;20846;-73
2023/06/13 10:54:36;;;;;;;5.00;3.80;;;;;;;;;;5053790;28;20759;-73
2023/06/13 10:57:02;;;;;;;5.30;3.70;;;;;;;;;;5053311;28;20431;-73
2023/06/13 10:59:36;;;;;;;4.30;3.30;;;;;;;;;;5053601;28;20452;-73
2023/06/13 11:02:02;;;;;;;4.00;3.70;;;;;;;;;;5053307;28;20407;-74
2023/06/13 11:04:29;;;;;;;4.23;3.60;;;;;;;;;;5053747;28;20392;-73
2023/06/13 11:07:15;;;;;;;3.70;3.40;;;;;;;;;;5053333;28;20410;-73
2023/06/13 11:09:41;;;;;;;3.67;3.37;;;;;;;;;;5053398;28;20744;-73
2023/06/13 11:12:07;;;;;;;3.57;3.33;;;;;;;;;;5053006;28;20415;-72
2023/06/13 11:14:37;;;;;;;4.27;3.87;;;;;;;;;;5053269;28;20409;-73
2023/06/13 11:17:04;;;;;;;4.40;4.00;;;;;;;;;;5053312;28;20542;-73
2023/06/13 11:19:33;;;;;;;6.43;3.90;;;;;;;;;;5053120;28;20490;-73
2023/06/13 11:21:59;;;;;;;4.30;3.90;;;;;;;;;;5052693;28;20404;-73
2023/06/13 11:24:29;;;;;;;4.33;3.93;;;;;;;;;;5053519;28;20551;-73
2023/06/13 11:26:59;;;;;;;3.60;3.30;;;;;;;;;;5053214;28;20447;-73
2023/06/13 11:29:26;;;;;;;5.03;4.00;;;;;;;;;;5053170;28;20767;-73
2023/06/13 11:31:54;;;;;;;4.63;3.63;;;;;;;;;;5053262;28;20403;-73
2023/06/13 11:34:42;;;;;;;4.07;3.77;;;;;;;;;;5053994;28;20397;-72
2023/06/13 11:37:10;;;;;;;5.43;3.97;;;;;;;;;;5054506;28;20444;-73
2023/06/13 11:39:39;;;;;;;7.17;3.80;;;;;;;;;;5053171;28;20463;-73
2023/06/13 11:42:06;;;;;;;4.00;3.60;;;;;;;;;;5052638;28;20791;-74
2023/06/13 11:44:32;;;;;;;5.53;3.73;;;;;;;;;;5052755;28;20419;-73
2023/06/13 11:46:58;;;;;;;4.47;4.10;;;;;;;;;;5052739;28;20771;-73
2023/06/13 11:49:24;;;;;;;3.93;3.63;;;;;;;;;;5053006;28;20407;-73
2023/06/13 11:51:50;;;;;;;4.20;3.80;;;;;;;;;;5053073;28;20400;-73
2023/06/13 11:54:16;;;;;;;4.10;3.67;;;;;;;;;;5052452;28;20419;-73
2023/06/13 11:56:52;;;;;;;4.03;3.73;;;;;;;;;;5052994;28;20407;-73
2023/06/13 11:59:25;;;;;;;6.03;3.60;;;;;;;;;;5052555;28;20841;-73
2023/06/13 12:01:54;;;;;;;4.70;3.90;;;;;;;;;;5052863;28;20718;-73
2023/06/13 12:04:21;;;;;;;6.30;4.00;;;;;;;;;;5051479;28;20416;-74
2023/06/13 12:06:47;;;;;;;4.00;3.70;;;;;;;;;;5052874;28;20404;-73
2023/06/13 12:09:17;;;;;;;4.40;3.57;;;;;;;;;;5052494;28;20404;-73
2023/06/13 12:11:44;;;;;;;5.10;3.80;;;;;;;;;;5052695;28;20716;-73
2023/06/13 12:14:10;;;;;;;4.53;3.80;;;;;;;;;;5052112;28;20426;-74
2023/06/13 12:16:37;;;;;;;4.90;4.17;;;;;;;;;;5052802;28;20867;-73
2023/06/13 12:19:06;;;;;;;4.07;3.67;;;;;;;;;;5052401;28;20606;-74
2023/06/13 12:21:34;;;;;;;6.03;3.67;;;;;;;;;;5052729;28;20403;-73
2023/06/13 12:24:01;;;;;;;4.70;3.43;;;;;;;;;;5052661;28;20463;-73
2023/06/13 12:26:30;;;;;;;5.47;4.07;;;;;;;;;;5052294;28;20408;-74
2023/06/13 12:29:01;;;;;;;4.63;4.23;;;;;;;;;;5052553;28;20415;-73
2023/06/13 12:31:38;;;;;;;5.70;3.80;;;;;;;;;;5052945;28;20490;-73
2023/06/13 12:34:29;;;;;;;4.83;4.33;;;;;;;;;;5052147;28;20500;-74
2023/06/13 12:36:59;;;;;;;4.60;3.90;;;;;;;;;;5052748;28;20468;-74
2023/06/13 12:39:25;;;;;;;6.60;4.20;;;;;;;;;;5052055;28;20767;-73
2023/06/13 12:41:52;;;;;;;4.50;4.10;;;;;;;;;;5052194;28;20783;-73
2023/06/13 12:44:20;;;;;;;5.83;3.43;;;;;;;;;;5052182;28;20473;-73
2023/06/13 12:46:46;;;;;;;4.87;4.47;;;;;;;;;;5052416;28;20479;-73
2023/06/13 12:49:14;;;;;;;5.07;3.87;;;;;;;;;;5055871;28;20408;-73
2023/06/13 12:51:44;;;;;;;3.67;3.30;;;;;;;;;;5055825;28;20392;-73
2023/06/13 12:54:11;;;;;;;4.83;3.40;;;;;;;;;;5055711;28;20864;-74
2023/06/13 12:56:37;;;;;;;4.70;4.23;;;;;;;;;;5055769;28;20404;-74
2023/06/13 12:59:06;;;;;;;4.90;4.40;;;;;;;;;;5055675;28;20459;-76
2023/06/13 13:01:32;;;;;;;3.73;3.40;;;;;;;;;;5055693;28;20412;-74
2023/06/13 13:03:58;;;;;;;4.17;3.87;;;;;;;;;;5055633;28;20550;-74
2023/06/13 13:06:26;;;;;;;4.77;4.03;;;;;;;;;;5055116;28;20795;-74
2023/06/13 13:08:52;;;;;;;3.70;3.40;;;;;;;;;;5055690;28;20411;-73
2023/06/13 13:11:18;;;;;;;4.40;3.70;;;;;;;;;;5055273;28;20503;-74
2023/06/13 13:13:46;;;;;;;6.80;3.90;;;;;;;;;;5055185;28;20562;-73
2023/06/13 13:16:12;;;;;;;3.90;3.60;;;;;;;;;;5055283;28;20400;-74
2023/06/13 13:18:38;;;;;;;6.33;3.80;;;;;;;;;;5055136;28;20497;-74
2023/06/13 13:21:04;;;;;;;4.30;3.40;;;;;;;;;;5055540;28;20411;-73
2023/06/13 13:23:32;;;;;;;4.00;3.60;;;;;;;;;;5055540;28;20392;-74
2023/06/13 13:25:58;;;;;;;6.03;3.50;;;;;;;;;;5055203;28;20443;-73
2023/06/13 13:28:24;;;;;;;4.00;3.60;;;;;;;;;;5054873;28;20435;-74
2023/06/13 13:30:50;;;;;;;4.60;3.63;;;;;;;;;;5054027;28;20408;-74
2023/06/13 13:33:18;;;;;;;4.50;3.73;;;;;;;;;;5054885;28;20466;-74
2023/06/13 13:35:44;;;;;;;4.87;4.30;;;;;;;;;;5055027;28;20502;-74
2023/06/13 13:38:10;;;;;;;4.43;4.00;;;;;;;;;;5055010;28;20451;-74
2023/06/13 13:40:36;;;;;;;3.60;3.30;;;;;;;;;;5055076;28;20451;-74
2023/06/13 13:43:02;;;;;;;4.40;3.97;;;;;;;;;;5054813;28;20416;-73
2023/06/13 13:45:28;;;;;;;4.53;3.60;;;;;;;;;;5054681;28;20407;-74
2023/06/13 13:47:55;;;;;;;3.60;3.40;;;;;;;;;;5054813;28;20828;-73
2023/06/13 13:50:21;;;;;;;4.73;4.10;;;;;;;;;;5054597;28;20403;-74
2023/06/13 13:52:47;;;;;;;4.07;3.77;;;;;;;;;;5054762;28;20748;-74
2023/06/13 13:55:14;;;;;;;4.27;3.90;;;;;;;;;;5054535;28;20422;-74
2023/06/13 13:57:40;;;;;;;4.20;3.80;;;;;;;;;;5054447;28;20415;-74
2023/06/13 14:00:07;;;;;;;3.97;3.67;;;;;;;;;;5054498;28;20466;-74
2023/06/13 14:02:33;;;;;;;4.30;3.90;;;;;;;;;;5053411;28;20750;-74
2023/06/13 14:04:59;;;;;;;4.50;4.03;;;;;;;;;;5054741;28;20404;-74
2023/06/13 14:07:25;;;;;;;4.70;3.80;;;;;;;;;;5054362;28;20416;-73
2023/06/13 14:09:52;;;;;;;4.13;3.83;;;;;;;;;;5054485;28;20470;-74
2023/06/13 14:12:18;;;;;;;4.43;4.03;;;;;;;;;;5054110;28;20412;-74
2023/06/13 14:14:44;;;;;;;4.23;3.83;;;;;;;;;;5052978;28;20458;-74
2023/06/13 14:17:10;;;;;;;3.60;3.30;;;;;;;;;;5053918;28;20400;-74
2023/06/13 14:19:36;;;;;;;3.60;3.10;;;;;;;;;;5054391;28;20456;-74
2023/06/13 14:22:02;;;;;;;4.73;4.10;;;;;;;;;;5054502;28;20844;-74
2023/06/13 14:24:28;;;;;;;6.23;4.03;;;;;;;;;;5053894;28;20409;-74
2023/06/13 14:26:55;;;;;;;5.87;4.23;;;;;;;;;;5054061;28;20799;-75
2023/06/13 14:29:21;;;;;;;5.57;3.80;;;;;;;;;;5053953;28;21002;-75
2023/06/13 14:31:47;;;;;;;6.00;3.40;;;;;;;;;;5053996;28;20403;-74
2023/06/13 14:34:14;;;;;;;4.00;3.67;;;;;;;;;;5053626;28;20400;-74
2023/06/13 14:36:41;;;;;;;5.33;4.07;;;;;;;;;;5053601;28;20447;-75
2023/06/13 14:39:08;;;;;;;5.43;4.07;;;;;;;;;;5053752;28;20463;-75
2023/06/13 14:41:34;;;;;;;4.40;4.03;;;;;;;;;;5053587;28;20412;-74
2023/06/13 14:44:00;;;;;;;5.03;3.83;;;;;;;;;;5053439;28;20420;-74